createdAt,value
2023-11-27T00:01:06.344Z,-4.70
2023-11-27T00:03:35.908Z,-4.65
2023-11-27T00:06:04.269Z,-4.59
2023-11-27T00:08:32.312Z,-4.55
2023-11-27T00:11:01.515Z,-4.51
2023-11-27T00:13:30.644Z,-4.50
2023-11-27T00:15:58.828Z,-4.51
2023-11-27T00:18:26.928Z,-4.49
2023-11-27T00:20:55.016Z,-4.48
2023-11-27T00:23:24.691Z,-4.45
2023-11-27T00:25:53.104Z,-4.45
2023-11-27T00:28:21.396Z,-4.42
2023-11-27T00:30:49.621Z,-4.41
2023-11-27T00:33:17.931Z,-4.41
2023-11-27T00:35:47.150Z,-4.40
2023-11-27T00:38:15.347Z,-4.40
2023-11-27T00:40:43.993Z,-4.39
2023-11-27T00:43:12.333Z,-4.39
2023-11-27T00:45:40.534Z,-4.37
2023-11-27T00:48:09.085Z,-4.35
2023-11-27T00:50:37.501Z,-4.34
2023-11-27T00:53:05.612Z,-4.32
2023-11-27T00:55:33.798Z,-4.28
2023-11-27T00:58:01.950Z,-4.26
2023-11-27T01:00:30.341Z,-4.26
2023-11-27T01:02:58.875Z,-4.28
2023-11-27T01:05:27.301Z,-4.30
2023-11-27T01:07:55.514Z,-4.31
2023-11-27T01:10:23.670Z,-4.32
2023-11-27T01:12:52.285Z,-4.31
2023-11-27T01:15:22.917Z,-4.34
2023-11-27T01:17:51.339Z,-4.36
2023-11-27T01:20:21.035Z,-4.40
2023-11-27T01:22:50.197Z,-4.45
2023-11-27T01:25:18.457Z,-4.48
2023-11-27T01:27:46.694Z,-4.52
2023-11-27T01:30:16.701Z,-4.55
2023-11-27T01:32:45.294Z,-4.62
2023-11-27T01:35:13.628Z,-4.68
2023-11-27T01:37:42.412Z,-4.73
2023-11-27T01:40:11.740Z,-4.75
2023-11-27T01:42:40.007Z,-4.77
2023-11-27T01:45:09.124Z,-4.79
2023-11-27T01:47:37.581Z,-4.79
2023-11-27T01:50:08.881Z,-4.78
2023-11-27T01:52:40.183Z,-4.80
2023-11-27T01:55:09.637Z,-4.82
2023-11-27T01:57:38.119Z,-4.84
2023-11-27T02:00:07.331Z,-4.86
2023-11-27T02:02:46.976Z,-4.88
2023-11-27T02:05:15.610Z,-4.93
2023-11-27T02:07:44.602Z,-4.97
2023-11-27T02:10:13.812Z,-5.00
2023-11-27T02:12:42.117Z,-5.04
2023-11-27T02:15:11.112Z,-5.10
2023-11-27T02:17:39.736Z,-5.16
2023-11-27T02:20:10.389Z,-5.18
2023-11-27T02:22:38.841Z,-5.25
2023-11-27T02:25:08.268Z,-5.30
2023-11-27T02:27:36.573Z,-5.35
2023-11-27T02:30:05.420Z,-5.39
2023-11-27T02:32:34.041Z,-5.42
2023-11-27T02:35:02.126Z,-5.42
2023-11-27T02:37:30.353Z,-5.43
2023-11-27T02:39:58.561Z,-5.45
2023-11-27T02:42:27.195Z,-5.49
2023-11-27T02:44:55.662Z,-5.51
2023-11-27T02:47:23.781Z,-5.55
2023-11-27T02:49:52.365Z,-5.58
2023-11-27T02:52:20.641Z,-5.54
2023-11-27T02:54:49.311Z,-5.45
2023-11-27T02:57:19.038Z,-5.34
2023-11-27T02:59:47.377Z,-5.24
2023-11-27T03:02:15.627Z,-5.17
2023-11-27T03:04:44.299Z,-5.09
2023-11-27T03:07:12.619Z,-5.03
2023-11-27T03:09:40.715Z,-4.95
2023-11-27T03:12:09.360Z,-4.86
2023-11-27T03:14:38.301Z,-4.73
2023-11-27T03:17:06.697Z,-4.64
2023-11-27T03:19:47.107Z,-4.60
2023-11-27T03:22:16.764Z,-4.52
2023-11-27T03:24:45.022Z,-4.48
2023-11-27T03:27:14.493Z,-4.46
2023-11-27T03:29:42.961Z,-4.47
2023-11-27T03:32:11.386Z,-4.48
2023-11-27T03:34:39.721Z,-4.53
2023-11-27T03:37:08.220Z,-4.57
2023-11-27T03:39:37.691Z,-4.61
2023-11-27T03:42:06.390Z,-4.64
2023-11-27T03:44:34.824Z,-4.64
2023-11-27T03:47:04.108Z,-4.66
2023-11-27T03:49:34.965Z,-4.65
2023-11-27T03:52:04.972Z,-4.66
2023-11-27T03:54:33.472Z,-4.66
2023-11-27T03:57:01.894Z,-4.67
2023-11-27T03:59:30.272Z,-4.70
2023-11-27T04:01:58.662Z,-4.78
2023-11-27T04:04:27.692Z,-4.82
2023-11-27T04:06:55.950Z,-4.83
2023-11-27T04:09:24.889Z,-4.84
2023-11-27T04:11:53.978Z,-4.87
2023-11-27T04:14:22.273Z,-4.91
2023-11-27T04:16:50.541Z,-4.93
2023-11-27T04:19:18.989Z,-4.92
2023-11-27T04:21:47.076Z,-4.91
2023-11-27T04:24:16.716Z,-4.92
2023-11-27T04:26:45.520Z,-4.94
2023-11-27T04:29:13.843Z,-4.95
2023-11-27T04:31:42.223Z,-4.95
2023-11-27T04:34:11.179Z,-4.97
2023-11-27T04:36:39.313Z,-4.94
2023-11-27T04:39:12.258Z,-4.90
2023-11-27T04:41:43.734Z,-4.87
2023-11-27T04:44:12.014Z,-4.86
2023-11-27T04:46:40.364Z,-4.84
2023-11-27T04:49:11.334Z,-4.82
2023-11-27T04:51:39.628Z,-4.82
2023-11-27T04:54:08.517Z,-4.85
2023-11-27T04:56:36.593Z,-4.88
2023-11-27T04:59:04.829Z,-4.92
2023-11-27T05:01:33.933Z,-4.93
2023-11-27T05:04:02.181Z,-4.97
2023-11-27T05:06:30.668Z,-5.01
2023-11-27T05:08:59.266Z,-5.05
2023-11-27T05:11:27.477Z,-5.12
2023-11-27T05:13:55.677Z,-5.19
2023-11-27T05:16:23.940Z,-5.29
2023-11-27T05:18:52.134Z,-5.30
2023-11-27T05:21:20.348Z,-5.33
2023-11-27T05:23:48.521Z,-5.35
2023-11-27T05:26:17.620Z,-5.39
2023-11-27T05:28:46.192Z,-5.43
2023-11-27T05:31:16.397Z,-5.43
2023-11-27T05:33:44.910Z,-5.44
2023-11-27T05:36:13.730Z,-5.47
2023-11-27T05:38:41.863Z,-5.52
2023-11-27T05:41:13.872Z,-5.55
2023-11-27T05:43:42.336Z,-5.55
2023-11-27T05:46:11.664Z,-5.54
2023-11-27T05:48:40.331Z,-5.54
2023-11-27T05:51:08.601Z,-5.56
2023-11-27T05:53:36.729Z,-5.56
2023-11-27T05:56:05.002Z,-5.61
2023-11-27T05:58:33.101Z,-5.65
2023-11-27T06:01:01.742Z,-5.64
2023-11-27T06:03:30.234Z,-5.63
2023-11-27T06:05:58.867Z,-5.63
2023-11-27T06:08:27.140Z,-5.59
2023-11-27T06:10:55.246Z,-5.57
2023-11-27T06:13:23.468Z,-5.57
2023-11-27T06:15:51.823Z,-5.58
2023-11-27T06:18:20.110Z,-5.57
2023-11-27T06:20:49.620Z,-5.53
2023-11-27T06:23:17.928Z,-5.46
2023-11-27T06:25:45.919Z,-5.38
2023-11-27T06:28:14.742Z,-5.32
2023-11-27T06:30:43.282Z,-5.25
2023-11-27T06:33:11.509Z,-5.18
2023-11-27T06:35:39.686Z,-5.10
2023-11-27T06:38:07.950Z,-5.00
2023-11-27T06:40:45.325Z,-4.89
2023-11-27T06:43:17.322Z,-4.78
2023-11-27T06:45:45.762Z,-4.64
2023-11-27T06:48:14.334Z,-4.49
2023-11-27T06:50:43.175Z,-4.33
2023-11-27T06:53:11.531Z,-4.13
2023-11-27T06:55:39.983Z,-3.91
2023-11-27T06:58:09.172Z,-3.67
2023-11-27T07:00:38.304Z,-3.45
2023-11-27T07:03:07.193Z,-3.25
2023-11-27T07:05:35.867Z,-3.12
2023-11-27T07:08:04.841Z,-3.06
2023-11-27T07:10:34.042Z,-3.04
2023-11-27T07:13:02.540Z,-3.02
2023-11-27T07:15:30.813Z,-3.00
2023-11-27T07:18:13.688Z,-3.02
2023-11-27T07:20:46.827Z,-3.04
2023-11-27T07:23:16.527Z,-3.02
2023-11-27T07:25:45.104Z,-3.01
2023-11-27T07:28:13.409Z,-3.00
2023-11-27T07:30:41.746Z,-3.00
2023-11-27T07:33:10.573Z,-2.98
2023-11-27T07:35:40.489Z,-2.95
2023-11-27T07:38:08.828Z,-2.92
2023-11-27T07:40:37.091Z,-2.92
2023-11-27T07:43:12.358Z,-2.91
2023-11-27T07:45:41.320Z,-2.89
2023-11-27T07:48:09.835Z,-2.87
2023-11-27T07:50:38.106Z,-2.87
2023-11-27T07:53:06.388Z,-2.90
2023-11-27T07:55:34.528Z,-2.92
2023-11-27T07:58:03.985Z,-2.92
2023-11-27T08:00:32.995Z,-2.94
2023-11-27T08:03:01.162Z,-2.93
2023-11-27T08:05:30.794Z,-2.92
2023-11-27T08:07:59.829Z,-2.85
2023-11-27T08:10:30.149Z,-2.78
2023-11-27T08:12:58.663Z,-2.71
2023-11-27T08:15:26.887Z,-2.57
2023-11-27T08:17:56.713Z,-2.40
2023-11-27T08:20:29.652Z,-2.29
2023-11-27T08:22:59.400Z,-2.16
2023-11-27T08:25:28.701Z,-2.00
2023-11-27T08:27:58.653Z,-1.98
2023-11-27T08:30:29.485Z,-1.99
2023-11-27T08:32:59.565Z,-1.90
2023-11-27T08:35:28.377Z,-1.79
2023-11-27T08:37:57.078Z,-1.80
2023-11-27T08:40:25.689Z,-1.80
2023-11-27T08:42:53.978Z,-1.84
2023-11-27T08:45:22.217Z,-1.84
2023-11-27T08:47:53.967Z,-1.78
2023-11-27T08:50:26.879Z,-1.69
2023-11-27T08:52:59.830Z,-1.61
2023-11-27T08:55:31.846Z,-1.49
2023-11-27T08:58:04.905Z,-1.40
2023-11-27T09:00:34.043Z,-1.35
2023-11-27T09:03:03.487Z,-1.36
2023-11-27T09:05:32.901Z,-1.40
2023-11-27T09:08:07.688Z,-1.37
2023-11-27T09:10:38.404Z,-1.33
2023-11-27T09:13:08.044Z,-1.25
2023-11-27T09:15:37.149Z,-1.20
2023-11-27T09:18:05.511Z,-1.16
2023-11-27T09:20:34.474Z,-1.09
2023-11-27T09:23:02.734Z,-1.01
2023-11-27T09:25:31.306Z,-0.94
2023-11-27T09:27:59.997Z,-0.87
2023-11-27T09:30:28.182Z,-0.79
2023-11-27T09:32:56.618Z,-0.73
2023-11-27T09:35:25.147Z,-0.69
2023-11-27T09:37:53.559Z,-0.76
2023-11-27T09:40:23.155Z,-0.76
2023-11-27T09:42:52.324Z,-0.77
2023-11-27T09:45:21.580Z,-0.77
2023-11-27T09:47:51.987Z,-0.76
2023-11-27T09:50:23.238Z,-0.78
2023-11-27T09:52:57.020Z,-0.78
2023-11-27T09:55:27.668Z,-0.77
2023-11-27T09:57:56.085Z,-0.80
2023-11-27T10:00:25.466Z,-0.84
2023-11-27T10:02:53.951Z,-0.87
2023-11-27T10:05:23.500Z,-0.91
2023-11-27T10:07:52.886Z,-0.97
2023-11-27T10:10:27.958Z,-1.00
2023-11-27T10:13:09.641Z,-1.03
2023-11-27T10:15:50.519Z,-1.02
2023-11-27T10:18:20.027Z,-1.00
2023-11-27T10:20:51.889Z,-0.97
2023-11-27T10:23:22.254Z,-0.93
2023-11-27T10:25:59.110Z,-0.90
2023-11-27T10:28:42.906Z,-0.89
2023-11-27T10:31:11.513Z,-0.86
2023-11-27T10:33:41.798Z,-0.84
2023-11-27T10:36:11.313Z,-0.80
2023-11-27T10:38:40.137Z,-0.76
2023-11-27T10:41:08.910Z,-0.76
2023-11-27T10:43:39.300Z,-0.80
2023-11-27T10:46:09.700Z,-0.84
2023-11-27T10:48:44.501Z,-0.86
2023-11-27T10:51:16.779Z,-0.89
2023-11-27T10:53:49.212Z,-0.89
2023-11-27T10:56:20.535Z,-0.88
2023-11-27T10:58:51.858Z,-0.92
2023-11-27T11:01:26.301Z,-0.95
2023-11-27T11:04:02.308Z,-0.94
2023-11-27T11:06:31.383Z,-0.92
2023-11-27T11:09:02.376Z,-0.90
2023-11-27T11:11:31.924Z,-0.85
2023-11-27T11:14:00.896Z,-0.88
2023-11-27T11:16:37.605Z,-0.87
2023-11-27T11:19:13.838Z,-0.83
2023-11-27T11:22:15.549Z,-0.79
2023-11-27T11:25:05.343Z,-0.73
2023-11-27T11:27:40.576Z,-0.60
2023-11-27T11:30:14.349Z,-0.57
2023-11-27T11:32:42.684Z,-0.57
2023-11-27T11:35:12.700Z,-0.49
2023-11-27T11:37:51.396Z,-0.42
2023-11-27T11:40:20.196Z,-0.38
2023-11-27T11:42:51.874Z,-0.37
2023-11-27T11:45:20.673Z,-0.37
2023-11-27T11:48:02.773Z,-0.35
2023-11-27T11:50:42.305Z,-0.31
2023-11-27T11:53:19.755Z,-0.29
2023-11-27T11:55:49.785Z,-0.30
2023-11-27T11:58:21.085Z,-0.27
2023-11-27T12:01:02.479Z,-0.27
2023-11-27T12:03:33.712Z,-0.25
2023-11-27T12:06:09.971Z,-0.22
2023-11-27T12:08:39.304Z,-0.23
2023-11-27T12:11:08.764Z,-0.23
2023-11-27T12:13:37.778Z,-0.25
2023-11-27T12:16:14.569Z,-0.22
2023-11-27T12:18:45.931Z,-0.23
2023-11-27T12:21:25.489Z,-0.26
2023-11-27T12:23:54.877Z,-0.33
2023-11-27T12:26:26.619Z,-0.36
2023-11-27T12:28:56.079Z,-0.39
2023-11-27T12:31:29.548Z,-0.42
2023-11-27T12:34:04.593Z,-0.42
2023-11-27T12:36:33.105Z,-0.44
2023-11-27T12:39:02.323Z,-0.39
2023-11-27T12:41:35.680Z,-0.30
2023-11-27T12:44:17.713Z,-0.17
2023-11-27T12:46:57.232Z,-0.09
2023-11-27T12:49:29.568Z,-0.08
2023-11-27T12:52:08.086Z,-0.06
2023-11-27T12:54:37.686Z,-0.06
2023-11-27T12:57:07.647Z,-0.06
2023-11-27T12:59:41.418Z,-0.09
2023-11-27T13:02:09.997Z,-0.12
2023-11-27T13:04:39.663Z,-0.11
2023-11-27T13:07:14.081Z,-0.08
2023-11-27T13:09:43.850Z,-0.05
2023-11-27T13:12:20.034Z,-0.08
2023-11-27T13:14:52.794Z,-0.07
2023-11-27T13:17:22.309Z,-0.05
2023-11-27T13:19:57.383Z,-0.06
2023-11-27T13:22:34.034Z,-0.06
2023-11-27T13:25:07.553Z,-0.05
2023-11-27T13:27:46.668Z,-0.01
2023-11-27T13:30:28.479Z,-0.00
2023-11-27T13:33:01.285Z,0.02
2023-11-27T13:35:36.211Z,0.03
2023-11-27T13:38:07.982Z,0.07
2023-11-27T13:40:37.061Z,0.08
2023-11-27T13:43:10.828Z,0.07
2023-11-27T13:45:39.072Z,0.07
2023-11-27T13:48:15.166Z,0.10
2023-11-27T13:50:45.055Z,0.11
2023-11-27T13:53:25.688Z,0.11
2023-11-27T13:55:57.510Z,0.12
2023-11-27T13:58:28.885Z,0.16
2023-11-27T14:01:02.360Z,0.17
2023-11-27T14:03:33.714Z,0.16
2023-11-27T14:06:16.707Z,0.18
2023-11-27T14:08:53.253Z,0.18
2023-11-27T14:11:34.048Z,0.20
2023-11-27T14:14:11.133Z,0.21
2023-11-27T14:16:46.063Z,0.18
2023-11-27T14:19:33.802Z,0.15
2023-11-27T14:22:20.664Z,0.14
2023-11-27T14:24:54.610Z,0.14
2023-11-27T14:27:46.882Z,0.10
2023-11-27T14:30:15.933Z,0.05
2023-11-27T14:32:44.092Z,0.02
2023-11-27T14:35:16.472Z,-0.03
2023-11-27T14:37:45.073Z,-0.06
2023-11-27T14:40:22.284Z,-0.09
2023-11-27T14:42:52.041Z,-0.14
2023-11-27T14:45:20.471Z,-0.17
2023-11-27T14:47:48.882Z,-0.21
2023-11-27T14:50:21.989Z,-0.24
2023-11-27T14:52:51.370Z,-0.27
2023-11-27T14:55:21.356Z,-0.30
2023-11-27T14:57:49.871Z,-0.34
2023-11-27T15:00:29.246Z,-0.39
2023-11-27T15:02:58.899Z,-0.40
2023-11-27T15:05:30.602Z,-0.40
2023-11-27T15:07:59.907Z,-0.41
2023-11-27T15:10:28.710Z,-0.42
2023-11-27T15:12:57.106Z,-0.42
2023-11-27T15:15:27.813Z,-0.41
2023-11-27T15:17:56.260Z,-0.39
2023-11-27T15:20:28.268Z,-0.35
2023-11-27T15:22:58.355Z,-0.30
2023-11-27T15:25:26.660Z,-0.32
2023-11-27T15:27:55.142Z,-0.30
2023-11-27T15:30:25.727Z,-0.24
2023-11-27T15:32:54.240Z,-0.16
2023-11-27T15:35:26.074Z,-0.12
2023-11-27T15:37:54.775Z,-0.08
2023-11-27T15:40:29.695Z,-0.06
2023-11-27T15:42:58.661Z,-0.09
2023-11-27T15:45:28.494Z,-0.14
2023-11-27T15:47:58.041Z,-0.19
2023-11-27T15:50:33.835Z,-0.19
2023-11-27T15:53:02.531Z,-0.17
2023-11-27T15:55:31.070Z,-0.22
2023-11-27T15:58:00.699Z,-0.26
2023-11-27T16:00:31.526Z,-0.31
2023-11-27T16:03:00.142Z,-0.30
2023-11-27T16:05:29.902Z,-0.33
2023-11-27T16:08:01.244Z,-0.34
2023-11-27T16:10:31.072Z,-0.39
2023-11-27T16:12:59.691Z,-0.49
2023-11-27T16:15:28.068Z,-0.56
2023-11-27T16:18:00.793Z,-0.62
2023-11-27T16:20:31.578Z,-0.65
2023-11-27T16:23:00.650Z,-0.70
2023-11-27T16:25:29.719Z,-0.74
2023-11-27T16:27:58.138Z,-0.80
2023-11-27T16:30:27.439Z,-0.85
2023-11-27T16:32:57.223Z,-0.87
2023-11-27T16:35:25.405Z,-0.90
2023-11-27T16:37:53.554Z,-0.92
2023-11-27T16:40:22.198Z,-0.92
2023-11-27T16:42:53.903Z,-0.94
2023-11-27T16:45:25.672Z,-0.96
2023-11-27T16:47:58.711Z,-0.97
2023-11-27T16:50:28.799Z,-0.98
2023-11-27T16:52:57.936Z,-0.97
2023-11-27T16:55:29.763Z,-0.99
2023-11-27T16:58:07.021Z,-1.02
2023-11-27T17:00:38.318Z,-1.04
2023-11-27T17:03:08.674Z,-1.05
2023-11-27T17:05:39.208Z,-1.07
2023-11-27T17:08:20.338Z,-1.08
2023-11-27T17:10:51.821Z,-1.08
2023-11-27T17:13:20.450Z,-1.11
2023-11-27T17:15:49.494Z,-1.15
2023-11-27T17:18:17.740Z,-1.15
2023-11-27T17:20:48.813Z,-1.15
2023-11-27T17:23:18.342Z,-1.10
2023-11-27T17:25:48.000Z,-1.06
2023-11-27T17:28:16.492Z,-0.98
2023-11-27T17:30:45.432Z,-0.92
2023-11-27T17:33:15.710Z,-0.86
2023-11-27T17:35:44.415Z,-0.76
2023-11-27T17:38:13.228Z,-0.71
2023-11-27T17:40:42.510Z,-0.65
2023-11-27T17:43:14.093Z,-0.58
2023-11-27T17:45:43.529Z,-0.56
2023-11-27T17:48:12.096Z,-0.52
2023-11-27T17:50:40.293Z,-0.50
2023-11-27T17:53:08.700Z,-0.45
2023-11-27T17:55:45.539Z,-0.43
2023-11-27T17:58:19.817Z,-0.39
2023-11-27T18:00:50.916Z,-0.30
2023-11-27T18:03:19.096Z,-0.29
2023-11-27T18:05:47.366Z,-0.31
2023-11-27T18:08:16.033Z,-0.41
2023-11-27T18:10:45.916Z,-0.49
2023-11-27T18:13:14.367Z,-0.55
2023-11-27T18:15:42.526Z,-0.61
2023-11-27T18:18:10.878Z,-0.70
2023-11-27T18:20:39.058Z,-0.80
2023-11-27T18:23:10.886Z,-0.90
2023-11-27T18:25:39.827Z,-0.96
2023-11-27T18:28:08.329Z,-1.05
2023-11-27T18:30:36.881Z,-1.14
2023-11-27T18:33:05.261Z,-1.20
2023-11-27T18:35:35.440Z,-1.27
2023-11-27T18:38:03.837Z,-1.29
2023-11-27T18:40:32.132Z,-1.31
2023-11-27T18:43:02.247Z,-1.34
2023-11-27T18:45:30.444Z,-1.36
2023-11-27T18:48:01.848Z,-1.37
2023-11-27T18:50:30.983Z,-1.36
2023-11-27T18:53:01.013Z,-1.36
2023-11-27T18:55:29.897Z,-1.37
2023-11-27T18:58:01.044Z,-1.43
2023-11-27T19:00:29.190Z,-1.45
2023-11-27T19:02:57.484Z,-1.44
2023-11-27T19:05:26.223Z,-1.45
2023-11-27T19:07:54.482Z,-1.47
2023-11-27T19:10:25.137Z,-1.48
2023-11-27T19:12:54.074Z,-1.50
2023-11-27T19:15:24.664Z,-1.46
2023-11-27T19:17:53.014Z,-1.45
2023-11-27T19:20:24.281Z,-1.43
2023-11-27T19:22:52.417Z,-1.40
2023-11-27T19:25:20.836Z,-1.40
2023-11-27T19:27:49.425Z,-1.45
2023-11-27T19:30:18.553Z,-1.47
2023-11-27T19:32:49.380Z,-1.54
2023-11-27T19:35:19.290Z,-1.58
2023-11-27T19:37:47.500Z,-1.54
2023-11-27T19:40:16.028Z,-1.46
2023-11-27T19:42:44.238Z,-1.52
2023-11-27T19:45:14.569Z,-1.61
2023-11-27T19:47:42.876Z,-1.70
2023-11-27T19:50:11.314Z,-1.73
2023-11-27T19:52:40.065Z,-1.76
2023-11-27T19:55:08.828Z,-1.82
2023-11-27T19:57:36.990Z,-1.86
2023-11-27T20:00:11.784Z,-1.89
2023-11-27T20:02:42.712Z,-1.96
2023-11-27T20:05:11.708Z,-2.02
2023-11-27T20:07:40.484Z,-2.01
2023-11-27T20:10:10.999Z,-2.02
2023-11-27T20:12:39.255Z,-2.05
2023-11-27T20:15:11.755Z,-2.05
2023-11-27T20:17:41.661Z,-2.03
2023-11-27T20:20:20.077Z,-2.01
2023-11-27T20:22:49.110Z,-2.00
2023-11-27T20:25:17.482Z,-1.96
2023-11-27T20:27:48.849Z,-1.96
2023-11-27T20:30:17.573Z,-2.02
2023-11-27T20:32:46.371Z,-2.05
2023-11-27T20:35:14.669Z,-2.05
2023-11-27T20:37:42.786Z,-2.09
2023-11-27T20:40:12.025Z,-2.09
2023-11-27T20:42:40.958Z,-2.12
2023-11-27T20:45:10.387Z,-2.18
2023-11-27T20:47:38.785Z,-2.21
2023-11-27T20:50:07.500Z,-2.25
2023-11-27T20:52:35.706Z,-2.36
2023-11-27T20:55:08.021Z,-2.40
2023-11-27T20:57:38.289Z,-2.44
2023-11-27T21:00:11.921Z,-2.50
2023-11-27T21:02:40.821Z,-2.52
2023-11-27T21:05:11.389Z,-2.63
2023-11-27T21:07:39.582Z,-2.74
2023-11-27T21:10:12.737Z,-2.78
2023-11-27T21:12:43.263Z,-2.85
2023-11-27T21:15:12.322Z,-2.89
2023-11-27T21:17:40.893Z,-3.01
2023-11-27T21:20:13.798Z,-3.00
2023-11-27T21:22:43.845Z,-2.95
2023-11-27T21:25:18.731Z,-2.91
2023-11-27T21:27:51.712Z,-2.93
2023-11-27T21:30:20.614Z,-2.95
2023-11-27T21:32:50.586Z,-2.92
2023-11-27T21:35:19.406Z,-2.87
2023-11-27T21:37:48.452Z,-2.83
2023-11-27T21:40:20.609Z,-2.79
2023-11-27T21:42:48.731Z,-2.79
2023-11-27T21:45:16.981Z,-2.77
2023-11-27T21:47:45.226Z,-2.73
2023-11-27T21:50:13.510Z,-2.72
2023-11-27T21:52:41.806Z,-2.68
2023-11-27T21:55:10.513Z,-2.67
2023-11-27T21:57:39.846Z,-2.65
2023-11-27T22:00:11.422Z,-2.64
2023-11-27T22:02:42.715Z,-2.62
2023-11-27T22:05:11.242Z,-2.61
2023-11-27T22:07:40.436Z,-2.54
2023-11-27T22:10:11.034Z,-2.48
2023-11-27T22:12:40.338Z,-2.43
2023-11-27T22:15:09.371Z,-2.37
2023-11-27T22:17:37.525Z,-2.31
2023-11-27T22:20:06.464Z,-2.25
2023-11-27T22:22:36.090Z,-2.14
2023-11-27T22:25:05.047Z,-2.07
2023-11-27T22:27:33.612Z,-2.03
2023-11-27T22:30:01.858Z,-1.99
2023-11-27T22:32:30.743Z,-1.92
2023-11-27T22:34:59.069Z,-1.87
2023-11-27T22:37:27.440Z,-1.82
2023-11-27T22:39:56.020Z,-1.69
2023-11-27T22:42:24.335Z,-1.62
2023-11-27T22:44:52.683Z,-1.59
2023-11-27T22:47:21.012Z,-1.51
2023-11-27T22:49:49.257Z,-1.50
2023-11-27T22:52:17.529Z,-1.47
2023-11-27T22:54:45.997Z,-1.45
2023-11-27T22:57:14.054Z,-1.50
2023-11-27T22:59:43.247Z,-1.50
2023-11-27T23:02:13.055Z,-1.48
2023-11-27T23:04:42.060Z,-1.47
2023-11-27T23:07:10.417Z,-1.49
2023-11-27T23:09:38.533Z,-1.54
2023-11-27T23:12:07.299Z,-1.58
2023-11-27T23:14:35.501Z,-1.61
2023-11-27T23:17:04.026Z,-1.63
2023-11-27T23:19:32.393Z,-1.66
2023-11-27T23:22:00.881Z,-1.68
2023-11-27T23:24:28.973Z,-1.70
2023-11-27T23:26:57.237Z,-1.75
2023-11-27T23:29:25.383Z,-1.78
2023-11-27T23:31:56.927Z,-1.84
2023-11-27T23:34:27.536Z,-1.87
2023-11-27T23:36:55.752Z,-1.92
2023-11-27T23:39:24.013Z,-1.96
2023-11-27T23:41:54.530Z,-2.05
2023-11-27T23:44:22.902Z,-2.04
2023-11-27T23:46:52.727Z,-2.04
2023-11-27T23:49:21.578Z,-2.04
2023-11-27T23:51:52.219Z,-2.06
2023-11-27T23:54:20.420Z,-2.06
2023-11-27T23:56:48.847Z,-2.04
2023-11-27T23:59:17.261Z,-1.99
